createdAt,value
2022-08-04T00:00:21.709Z,23.82
2022-08-04T00:03:03.502Z,23.86
2022-08-04T00:05:43.115Z,23.88
2022-08-04T00:08:23.750Z,23.89
2022-08-04T00:10:56.240Z,23.87
2022-08-04T00:13:28.146Z,23.87
2022-08-04T00:15:59.040Z,23.86
2022-08-04T00:18:32.370Z,23.83
2022-08-04T00:21:04.532Z,23.82
2022-08-04T00:24:11.933Z,23.80
2022-08-04T00:26:23.727Z,23.77
2022-08-04T00:28:57.317Z,23.74
2022-08-04T00:31:33.226Z,23.70
2022-08-04T00:34:14.979Z,23.65
2022-08-04T00:36:44.956Z,23.63
2022-08-04T00:39:15.094Z,23.58
2022-08-04T00:41:59.797Z,23.54
2022-08-04T00:44:42.058Z,23.48
2022-08-04T00:47:23.892Z,23.45
2022-08-04T00:50:05.851Z,23.42
2022-08-04T00:52:51.930Z,23.36
2022-08-04T00:55:37.005Z,23.31
2022-08-04T00:58:22.727Z,23.27
2022-08-04T01:00:59.625Z,23.19
2022-08-04T01:03:43.054Z,23.15
2022-08-04T01:06:23.380Z,23.13
2022-08-04T01:09:04.183Z,23.10
2022-08-04T01:11:57.521Z,23.06
2022-08-04T01:14:48.822Z,23.03
2022-08-04T01:17:22.529Z,22.98
2022-08-04T01:20:07.006Z,22.96
2022-08-04T01:23:11.036Z,22.93
2022-08-04T01:26:02.748Z,22.88
2022-08-04T01:29:11.125Z,22.84
2022-08-04T01:31:55.646Z,22.79
2022-08-04T01:34:24.620Z,22.76
2022-08-04T01:37:00.090Z,22.72
2022-08-04T01:39:41.597Z,22.69
2022-08-04T01:42:11.822Z,22.66
2022-08-04T01:44:42.598Z,22.64
2022-08-04T01:47:11.044Z,22.62
2022-08-04T01:49:41.221Z,22.60
2022-08-04T01:52:11.264Z,22.58
2022-08-04T01:54:43.068Z,22.58
2022-08-04T01:57:38.347Z,22.56
2022-08-04T02:00:01.564Z,22.53
2022-08-04T02:02:32.208Z,22.50
2022-08-04T02:05:00.113Z,22.47
2022-08-04T02:07:39.688Z,22.47
2022-08-04T02:10:12.377Z,22.43
2022-08-04T02:12:53.738Z,22.42
2022-08-04T02:15:29.944Z,22.39
2022-08-04T02:18:04.324Z,22.35
2022-08-04T02:20:36.593Z,22.32
2022-08-04T02:23:07.747Z,22.32
2022-08-04T02:25:41.217Z,22.31
2022-08-04T02:28:22.556Z,22.32
2022-08-04T02:31:05.140Z,22.31
2022-08-04T02:33:39.168Z,22.32
2022-08-04T02:36:10.577Z,22.31
2022-08-04T02:38:55.137Z,22.30
2022-08-04T02:41:25.895Z,22.31
2022-08-04T02:43:57.378Z,22.30
2022-08-04T02:46:27.481Z,22.31
2022-08-04T02:48:56.058Z,22.31
2022-08-04T02:51:27.094Z,22.29
2022-08-04T02:53:57.408Z,22.28
2022-08-04T02:56:26.897Z,22.20
2022-08-04T02:58:59.660Z,22.15
2022-08-04T03:01:28.978Z,22.20
2022-08-04T03:04:37.433Z,22.24
2022-08-04T03:07:29.727Z,22.20
2022-08-04T03:10:16.271Z,22.15
2022-08-04T03:13:24.633Z,22.11
2022-08-04T03:16:08.695Z,22.05
2022-08-04T03:19:21.875Z,22.05
2022-08-04T03:22:29.346Z,22.03
2022-08-04T03:25:36.722Z,22.01
2022-08-04T03:28:54.871Z,22.00
2022-08-04T03:32:06.185Z,21.98
2022-08-04T03:34:55.294Z,21.96
2022-08-04T03:37:53.422Z,21.95
2022-08-04T03:40:41.601Z,21.93
2022-08-04T03:43:57.582Z,21.88
2022-08-04T03:46:53.452Z,21.86
2022-08-04T03:50:05.692Z,21.83
2022-08-04T03:53:09.411Z,21.78
2022-08-04T03:56:03.206Z,21.76
2022-08-04T03:59:01.358Z,21.76
2022-08-04T04:02:02.792Z,21.76
2022-08-04T04:04:55.187Z,21.75
2022-08-04T04:07:45.036Z,21.71
2022-08-04T04:10:37.145Z,21.71
2022-08-04T04:13:30.838Z,21.74
2022-08-04T04:16:28.933Z,21.77
2022-08-04T04:19:23.031Z,21.82
2022-08-04T04:22:05.733Z,21.85
2022-08-04T04:24:56.211Z,21.89
2022-08-04T04:27:40.163Z,21.92
2022-08-04T04:30:13.479Z,21.94
2022-08-04T04:33:02.727Z,21.96
2022-08-04T04:35:39.800Z,21.99
2022-08-04T04:38:42.990Z,22.00
2022-08-04T04:41:33.860Z,22.02
2022-08-04T04:44:30.576Z,22.02
2022-08-04T04:47:05.886Z,22.03
2022-08-04T04:49:46.067Z,22.04
2022-08-04T04:52:31.338Z,22.06
2022-08-04T04:55:05.661Z,22.04
2022-08-04T04:57:53.582Z,22.08
2022-08-04T05:00:26.135Z,22.10
2022-08-04T05:03:13.066Z,22.11
2022-08-04T05:05:52.624Z,22.16
2022-08-04T05:08:55.751Z,22.26
2022-08-04T05:11:55.158Z,22.33
2022-08-04T05:14:34.685Z,22.38
2022-08-04T05:17:18.413Z,22.43
2022-08-04T05:19:55.617Z,22.46
2022-08-04T05:22:29.913Z,22.51
2022-08-04T05:25:05.398Z,22.55
2022-08-04T05:27:41.755Z,22.61
2022-08-04T05:30:11.859Z,22.64
2022-08-04T05:32:50.206Z,22.66
2022-08-04T05:35:55.825Z,22.68
2022-08-04T05:38:26.827Z,22.67
2022-08-04T05:40:55.821Z,22.64
2022-08-04T05:43:25.989Z,22.66
2022-08-04T05:45:57.731Z,22.68
2022-08-04T05:48:28.968Z,22.76
2022-08-04T05:51:01.013Z,22.84
2022-08-04T05:53:30.009Z,22.92
2022-08-04T05:56:00.080Z,23.00
2022-08-04T05:58:30.707Z,23.05
2022-08-04T06:01:00.564Z,23.11
2022-08-04T06:03:31.970Z,23.21
2022-08-04T06:06:01.136Z,23.26
2022-08-04T06:08:31.332Z,23.33
2022-08-04T06:11:03.508Z,23.41
2022-08-04T06:13:47.884Z,23.55
2022-08-04T06:16:28.866Z,23.63
2022-08-04T06:19:59.897Z,23.73
2022-08-04T06:21:57.298Z,23.80
2022-08-04T06:24:27.470Z,23.88
2022-08-04T06:26:56.843Z,23.95
2022-08-04T06:29:30.880Z,23.97
2022-08-04T06:32:31.094Z,23.98
2022-08-04T06:34:53.574Z,24.07
2022-08-04T06:37:41.124Z,24.20
2022-08-04T06:40:29.386Z,24.25
2022-08-04T06:43:01.714Z,24.34
2022-08-04T06:45:30.671Z,24.49
2022-08-04T06:48:01.249Z,24.63
2022-08-04T06:51:34.475Z,24.83
2022-08-04T06:53:19.352Z,25.14
2022-08-04T06:55:48.991Z,25.41
2022-08-04T06:58:18.651Z,25.58
2022-08-04T07:00:47.998Z,25.62
2022-08-04T07:03:18.755Z,25.69
2022-08-04T07:05:49.847Z,25.68
2022-08-04T07:08:18.400Z,25.66
2022-08-04T07:10:47.385Z,25.65
2022-08-04T07:13:16.829Z,25.62
2022-08-04T07:15:46.584Z,25.63
2022-08-04T07:18:14.762Z,25.72
2022-08-04T07:20:43.444Z,25.85
2022-08-04T07:23:17.514Z,25.90
2022-08-04T07:26:12.189Z,25.96
2022-08-04T07:28:40.785Z,26.07
2022-08-04T07:31:34.379Z,26.20
2022-08-04T07:34:17.101Z,26.35
2022-08-04T07:36:52.875Z,26.65
2022-08-04T07:39:29.761Z,26.95
2022-08-04T07:42:01.365Z,27.22
2022-08-04T07:44:30.670Z,27.28
2022-08-04T07:46:59.044Z,27.55
2022-08-04T07:49:57.340Z,27.64
2022-08-04T07:52:16.836Z,27.49
2022-08-04T07:54:46.733Z,27.41
2022-08-04T07:57:20.714Z,27.29
2022-08-04T08:00:04.180Z,27.32
2022-08-04T08:02:40.238Z,27.37
2022-08-04T08:05:11.114Z,27.46
2022-08-04T08:07:50.467Z,27.65
2022-08-04T08:10:24.825Z,27.70
2022-08-04T08:12:54.323Z,27.73
2022-08-04T08:15:23.359Z,27.78
2022-08-04T08:17:58.940Z,27.92
2022-08-04T08:20:31.752Z,28.09
2022-08-04T08:23:00.337Z,28.16
2022-08-04T08:25:31.497Z,28.24
2022-08-04T08:27:59.438Z,28.26
2022-08-04T08:30:32.095Z,28.37
2022-08-04T08:33:06.982Z,28.44
2022-08-04T08:35:53.267Z,28.71
2022-08-04T08:38:29.972Z,28.59
2022-08-04T08:41:19.250Z,28.71
2022-08-04T08:44:08.880Z,28.87
2022-08-04T08:46:52.021Z,29.00
2022-08-04T08:50:03.097Z,28.98
2022-08-04T08:53:01.036Z,29.03
2022-08-04T08:55:50.928Z,29.12
2022-08-04T08:58:48.117Z,29.27
2022-08-04T09:01:32.497Z,29.29
2022-08-04T09:04:32.298Z,29.42
2022-08-04T09:07:17.088Z,29.61
2022-08-04T09:09:54.439Z,29.97
2022-08-04T09:12:29.335Z,30.25
2022-08-04T09:15:05.775Z,30.32
2022-08-04T09:17:38.615Z,30.40
2022-08-04T09:20:11.332Z,30.56
2022-08-04T09:22:46.438Z,30.75
2022-08-04T09:25:25.165Z,30.88
2022-08-04T09:27:55.609Z,30.86
2022-08-04T09:30:30.433Z,31.02
2022-08-04T09:33:05.666Z,30.87
2022-08-04T09:35:43.455Z,30.83
2022-08-04T09:38:20.280Z,30.87
2022-08-04T09:40:57.083Z,30.92
2022-08-04T09:43:58.978Z,30.94
2022-08-04T09:46:41.664Z,30.98
2022-08-04T09:49:16.007Z,31.06
2022-08-04T09:52:00.123Z,31.09
2022-08-04T09:54:41.456Z,31.24
2022-08-04T09:57:19.077Z,31.38
2022-08-04T09:59:54.651Z,31.36
2022-08-04T10:02:25.766Z,31.30
2022-08-04T10:04:57.870Z,31.36
2022-08-04T10:08:02.133Z,31.68
2022-08-04T10:10:37.593Z,31.73
2022-08-04T10:13:17.526Z,31.93
2022-08-04T10:15:53.280Z,31.78
2022-08-04T10:18:44.964Z,31.83
2022-08-04T10:21:20.729Z,31.92
2022-08-04T10:24:01.001Z,32.31
2022-08-04T10:26:48.025Z,32.58
2022-08-04T10:29:20.666Z,32.52
2022-08-04T10:31:55.959Z,32.44
2022-08-04T10:34:30.357Z,32.43
2022-08-04T10:37:05.413Z,32.49
2022-08-04T10:39:43.307Z,32.53
2022-08-04T10:42:22.653Z,32.54
2022-08-04T10:45:05.210Z,32.82
2022-08-04T10:47:36.441Z,32.91
2022-08-04T10:50:10.241Z,32.98
2022-08-04T10:52:45.914Z,33.16
2022-08-04T10:55:18.660Z,33.19
2022-08-04T10:57:51.646Z,33.20
2022-08-04T11:00:25.683Z,33.21
2022-08-04T11:03:00.339Z,33.24
2022-08-04T11:05:44.124Z,33.45
2022-08-04T11:08:23.689Z,33.70
2022-08-04T11:11:01.265Z,33.91
2022-08-04T11:13:35.793Z,34.11
2022-08-04T11:16:12.770Z,33.91
2022-08-04T11:18:49.545Z,33.90
2022-08-04T11:21:23.309Z,34.01
2022-08-04T11:24:03.663Z,34.08
2022-08-04T11:26:42.865Z,34.16
2022-08-04T11:29:22.858Z,34.23
2022-08-04T11:31:52.551Z,34.18
2022-08-04T11:34:35.162Z,34.16
2022-08-04T11:37:14.668Z,34.16
2022-08-04T11:39:59.827Z,34.19
2022-08-04T11:42:33.480Z,34.09
2022-08-04T11:45:07.126Z,33.99
2022-08-04T11:47:45.129Z,33.88
2022-08-04T11:50:28.641Z,33.81
2022-08-04T11:53:04.341Z,33.70
2022-08-04T11:56:09.058Z,33.35
2022-08-04T11:58:50.228Z,33.29
2022-08-04T12:01:28.778Z,33.37
2022-08-04T12:04:20.245Z,33.49
2022-08-04T12:07:15.156Z,33.72
2022-08-04T12:09:59.324Z,33.86
2022-08-04T12:16:05.751Z,33.97
2022-08-04T12:18:46.609Z,34.07
2022-08-04T12:21:40.426Z,34.09
2022-08-04T12:24:25.169Z,34.11
2022-08-04T12:27:30.796Z,34.05
2022-08-04T12:31:00.535Z,33.92
2022-08-04T12:34:02.878Z,33.83
2022-08-04T12:36:24.030Z,34.13
2022-08-04T12:39:00.428Z,34.25
2022-08-04T12:41:38.655Z,34.50
2022-08-04T12:44:37.573Z,34.62
2022-08-04T12:47:26.517Z,34.90
2022-08-04T12:50:03.896Z,34.79
2022-08-04T12:52:59.586Z,34.67
2022-08-04T12:55:37.128Z,34.72
2022-08-04T12:58:16.234Z,34.99
2022-08-04T13:02:07.412Z,35.34
2022-08-04T13:04:06.726Z,35.43
2022-08-04T13:06:37.207Z,35.35
2022-08-04T13:09:09.230Z,35.36
2022-08-04T13:11:43.651Z,35.29
2022-08-04T13:14:26.657Z,35.51
2022-08-04T13:17:01.066Z,35.75
2022-08-04T13:19:30.744Z,35.79
2022-08-04T13:22:02.998Z,35.91
2022-08-04T13:27:23.179Z,35.58
2022-08-04T13:30:00.715Z,35.52
2022-08-04T13:30:25.228Z,35.74
2022-08-04T13:32:35.258Z,35.53
2022-08-04T13:35:05.774Z,35.58
2022-08-04T13:37:38.849Z,35.46
2022-08-04T13:40:10.343Z,35.39
2022-08-04T13:42:39.956Z,35.31
2022-08-04T13:45:09.799Z,35.38
2022-08-04T13:47:41.236Z,35.43
2022-08-04T13:50:17.207Z,35.46
2022-08-04T13:52:46.660Z,35.49
2022-08-04T13:55:23.367Z,35.48
2022-08-04T13:57:54.140Z,35.59
2022-08-04T14:00:29.500Z,35.60
2022-08-04T14:03:23.141Z,35.49
2022-08-04T14:06:17.867Z,35.30
2022-08-04T14:08:51.441Z,35.36
2022-08-04T14:12:06.937Z,35.68
2022-08-04T14:14:17.620Z,35.75
2022-08-04T14:17:03.905Z,35.72
2022-08-04T14:19:52.065Z,35.53
2022-08-04T14:22:35.061Z,35.56
2022-08-04T14:25:08.953Z,35.62
2022-08-04T14:27:46.709Z,35.63
2022-08-04T14:30:27.111Z,35.69
2022-08-04T14:34:00.663Z,35.47
2022-08-04T14:36:01.509Z,35.20
2022-08-04T14:38:46.472Z,35.50
2022-08-04T14:41:16.163Z,35.73
2022-08-04T14:43:49.532Z,36.24
2022-08-04T14:46:17.582Z,36.34
2022-08-04T14:49:02.876Z,36.18
2022-08-04T14:51:38.018Z,36.14
2022-08-04T14:54:09.556Z,36.12
2022-08-04T14:56:47.542Z,35.90
2022-08-04T14:59:15.555Z,35.85
2022-08-04T15:01:44.839Z,35.78
2022-08-04T15:04:29.299Z,35.86
2022-08-04T15:06:58.610Z,36.15
2022-08-04T15:09:26.861Z,36.19
2022-08-04T15:11:54.948Z,36.54
2022-08-04T15:14:37.009Z,36.55
2022-08-04T15:17:12.364Z,36.56
2022-08-04T15:19:56.818Z,36.31
2022-08-04T15:22:26.271Z,36.17
2022-08-04T15:24:55.385Z,35.88
2022-08-04T15:27:27.524Z,35.72
2022-08-04T15:30:02.441Z,35.25
2022-08-04T15:32:33.020Z,35.35
2022-08-04T15:35:04.630Z,35.23
2022-08-04T15:37:40.748Z,35.11
2022-08-04T15:40:13.075Z,34.82
2022-08-04T15:42:47.595Z,34.58
2022-08-04T15:46:32.957Z,34.23
2022-08-04T15:48:34.157Z,33.21
2022-08-04T15:51:14.307Z,32.89
2022-08-04T15:54:28.042Z,32.38
2022-08-04T15:57:03.503Z,32.27
2022-08-04T15:59:58.326Z,31.86
2022-08-04T16:02:50.326Z,31.98
2022-08-04T16:05:36.940Z,31.65
2022-08-04T16:08:13.544Z,31.77
2022-08-04T16:10:42.617Z,31.72
2022-08-04T16:13:14.875Z,31.24
2022-08-04T16:15:48.788Z,31.11
2022-08-04T16:18:39.340Z,31.14
2022-08-04T16:21:17.593Z,30.79
2022-08-04T16:24:08.401Z,30.48
2022-08-04T16:26:55.188Z,30.66
2022-08-04T16:29:48.001Z,30.55
2022-08-04T16:32:22.012Z,30.32
2022-08-04T16:34:56.477Z,30.22
2022-08-04T16:37:30.516Z,29.95
2022-08-04T16:40:36.993Z,29.92
2022-08-04T16:43:11.327Z,29.71
2022-08-04T16:45:56.357Z,29.85
2022-08-04T16:48:27.702Z,29.57
2022-08-04T16:51:04.724Z,29.71
2022-08-04T16:53:51.897Z,29.39
2022-08-04T16:56:33.602Z,29.41
2022-08-04T16:59:09.363Z,29.41
2022-08-04T17:01:39.495Z,29.41
2022-08-04T17:04:07.916Z,29.32
2022-08-04T17:06:37.915Z,29.43
2022-08-04T17:09:07.587Z,29.21
2022-08-04T17:11:35.455Z,29.17
2022-08-04T17:14:05.867Z,29.15
2022-08-04T17:16:36.139Z,29.14
2022-08-04T17:19:25.067Z,29.05
2022-08-04T17:22:02.830Z,29.00
2022-08-04T17:24:32.521Z,28.97
2022-08-04T17:27:00.378Z,28.91
2022-08-04T17:29:43.014Z,28.74
2022-08-04T17:32:18.653Z,28.73
2022-08-04T17:34:52.423Z,28.69
2022-08-04T17:37:39.249Z,28.61
2022-08-04T17:40:18.421Z,28.38
2022-08-04T17:43:03.183Z,28.56
2022-08-04T17:46:28.085Z,28.64
2022-08-04T17:49:09.650Z,28.61
2022-08-04T17:52:05.026Z,28.56
2022-08-04T17:54:39.915Z,28.55
2022-08-04T17:57:16.159Z,28.48
2022-08-04T17:59:57.664Z,28.33
2022-08-04T18:02:32.413Z,28.19
2022-08-04T18:05:07.067Z,28.27
2022-08-04T18:10:44.580Z,28.19
2022-08-04T18:13:25.552Z,28.05
2022-08-04T18:16:02.880Z,28.11
2022-08-04T18:18:31.151Z,28.00
2022-08-04T18:21:03.433Z,28.07
2022-08-04T18:23:34.153Z,28.06
2022-08-04T18:26:11.305Z,27.90
2022-08-04T18:28:41.938Z,27.94
2022-08-04T18:31:09.748Z,27.93
2022-08-04T18:33:41.623Z,28.00
2022-08-04T18:39:12.164Z,27.90
2022-08-04T18:42:02.086Z,27.87
2022-08-04T18:44:31.332Z,27.80
2022-08-04T18:47:19.652Z,27.75
2022-08-04T18:51:01.566Z,27.68
2022-08-04T18:52:35.801Z,27.65
2022-08-04T18:55:55.614Z,27.59
2022-08-04T18:58:06.054Z,27.57
2022-08-04T19:00:36.390Z,27.36
2022-08-04T19:03:04.187Z,27.41
2022-08-04T19:05:38.189Z,27.44
2022-08-04T19:08:32.575Z,27.40
2022-08-04T19:11:00.244Z,27.37
2022-08-04T19:13:30.094Z,27.38
2022-08-04T19:16:03.030Z,27.28
2022-08-04T19:18:32.345Z,27.21
2022-08-04T19:21:05.109Z,27.08
2022-08-04T19:24:11.302Z,27.05
2022-08-04T19:26:28.267Z,27.09
2022-08-04T19:28:56.568Z,27.05
2022-08-04T19:34:12.465Z,26.84
2022-08-04T19:36:40.302Z,26.69
2022-08-04T19:39:14.835Z,26.85
2022-08-04T19:42:04.254Z,26.85
2022-08-04T19:44:34.525Z,26.72
2022-08-04T19:48:12.218Z,26.71
2022-08-04T19:50:04.645Z,26.78
2022-08-04T19:52:38.532Z,26.74
2022-08-04T19:55:10.810Z,26.81
2022-08-04T19:57:46.137Z,26.70
2022-08-04T20:00:32.841Z,26.68
2022-08-04T20:03:03.132Z,26.54
2022-08-04T20:05:55.167Z,26.00
2022-08-04T20:08:24.444Z,25.92
2022-08-04T20:10:54.713Z,26.01
2022-08-04T20:13:25.236Z,26.08
2022-08-04T20:15:58.056Z,26.16
2022-08-04T20:18:35.643Z,26.19
2022-08-04T20:21:19.967Z,26.12
2022-08-04T20:26:50.708Z,26.05
2022-08-04T20:29:39.934Z,26.03
2022-08-04T20:32:09.722Z,26.05
2022-08-04T20:34:37.889Z,25.90
2022-08-04T20:37:10.215Z,25.87
2022-08-04T20:39:38.947Z,25.86
2022-08-04T20:42:07.402Z,25.76
2022-08-04T20:44:42.009Z,25.72
2022-08-04T20:47:10.671Z,25.66
2022-08-04T20:49:42.721Z,25.55
2022-08-04T20:52:18.063Z,25.33
2022-08-04T20:54:49.300Z,25.37
2022-08-04T20:57:47.866Z,24.98
2022-08-04T21:00:14.708Z,25.14
2022-08-04T21:02:44.490Z,25.18
2022-08-04T21:05:12.934Z,25.14
2022-08-04T21:07:41.897Z,25.17
2022-08-04T21:10:12.120Z,25.13
2022-08-04T21:12:40.117Z,25.13
2022-08-04T21:15:14.041Z,25.01
2022-08-04T21:17:59.383Z,24.73
2022-08-04T21:20:33.519Z,24.77
2022-08-04T21:23:03.625Z,24.57
2022-08-04T21:25:42.686Z,24.55
2022-08-04T21:28:11.884Z,24.61
2022-08-04T21:30:52.745Z,24.45
2022-08-04T21:33:49.836Z,24.41
2022-08-04T21:36:13.408Z,24.44
2022-08-04T21:38:41.962Z,24.42
2022-08-04T21:41:20.463Z,24.54
2022-08-04T21:43:53.190Z,24.40
2022-08-04T21:46:21.124Z,24.53
2022-08-04T21:48:50.606Z,24.44
2022-08-04T21:51:59.349Z,24.52
2022-08-04T21:54:09.376Z,24.55
2022-08-04T21:56:37.964Z,24.55
2022-08-04T21:59:11.478Z,24.53
2022-08-04T22:01:50.379Z,24.49
2022-08-04T22:04:21.690Z,24.46
2022-08-04T22:06:51.915Z,24.23
2022-08-04T22:09:21.865Z,24.22
2022-08-04T22:11:51.751Z,23.95
2022-08-04T22:14:29.070Z,23.98
2022-08-04T22:17:01.853Z,23.78
2022-08-04T22:19:50.789Z,23.71
2022-08-04T22:28:02.555Z,23.74
2022-08-04T22:30:36.930Z,23.72
2022-08-04T22:33:07.552Z,23.47
2022-08-04T22:35:43.661Z,23.54
2022-08-04T22:38:24.100Z,23.54
2022-08-04T22:41:02.320Z,23.36
2022-08-04T22:43:33.664Z,23.39
2022-08-04T22:46:04.124Z,23.29
2022-08-04T22:48:34.541Z,23.24
2022-08-04T22:51:05.545Z,23.26
2022-08-04T22:53:33.812Z,23.17
2022-08-04T22:56:10.071Z,23.15
2022-08-04T22:58:45.396Z,23.23
2022-08-04T23:01:15.004Z,23.29
2022-08-04T23:03:50.865Z,23.19
2022-08-04T23:06:28.612Z,23.19
2022-08-04T23:08:57.060Z,23.04
2022-08-04T23:11:25.052Z,22.92
2022-08-04T23:14:04.067Z,22.92
2022-08-04T23:16:32.289Z,22.63
2022-08-04T23:19:00.345Z,22.57
2022-08-04T23:21:41.078Z,22.67
2022-08-04T23:24:15.422Z,22.54
2022-08-04T23:26:43.265Z,22.65
2022-08-04T23:29:11.334Z,22.55
2022-08-04T23:31:59.789Z,22.30
2022-08-04T23:34:29.297Z,22.40
2022-08-04T23:37:01.034Z,22.35
2022-08-04T23:40:03.931Z,22.40
2022-08-04T23:42:21.314Z,22.30
2022-08-04T23:44:49.795Z,22.18
2022-08-04T23:48:14.684Z,22.18
2022-08-04T23:50:05.981Z,22.03
2022-08-04T23:52:35.273Z,21.94
2022-08-04T23:55:03.357Z,21.98
2022-08-04T23:58:05.325Z,21.98
